sensor_id;sensor_type;location;lat;lon;timestamp;P1;durP1;ratioP1;P2;durP2;ratioP2
17997;SDS011;9124;48.144;17.098;2022-12-29T00:40:28;10.32;;;8.15;;
17997;SDS011;9124;48.144;17.098;2022-12-29T00:44:27;9.55;;;7.15;;
17997;SDS011;9124;48.144;17.098;2022-12-29T00:48:04;15.50;;;8.00;;
17997;SDS011;9124;48.144;17.098;2022-12-29T00:51:40;9.40;;;7.68;;
17997;SDS011;9124;48.144;17.098;2022-12-29T00:55:17;15.13;;;8.77;;
17997;SDS011;9124;48.144;17.098;2022-12-29T00:58:54;9.82;;;8.13;;
17997;SDS011;9124;48.144;17.098;2022-12-29T01:02:31;13.93;;;7.65;;
17997;SDS011;9124;48.144;17.098;2022-12-29T01:06:07;10.57;;;6.85;;
17997;SDS011;9124;48.144;17.098;2022-12-29T01:09:47;14.75;;;7.82;;
17997;SDS011;9124;48.144;17.098;2022-12-29T01:13:41;8.90;;;6.10;;
17997;SDS011;9124;48.144;17.098;2022-12-29T01:17:20;12.23;;;6.97;;
17997;SDS011;9124;48.144;17.098;2022-12-29T01:21:00;8.80;;;6.30;;
17997;SDS011;9124;48.144;17.098;2022-12-29T01:24:38;9.60;;;7.18;;
17997;SDS011;9124;48.144;17.098;2022-12-29T01:28:14;9.85;;;6.63;;
17997;SDS011;9124;48.144;17.098;2022-12-29T01:31:50;9.73;;;6.85;;
17997;SDS011;9124;48.144;17.098;2022-12-29T01:35:27;11.05;;;6.95;;
17997;SDS011;9124;48.144;17.098;2022-12-29T01:39:04;7.00;;;6.25;;
17997;SDS011;9124;48.144;17.098;2022-12-29T01:42:40;14.80;;;6.95;;
17997;SDS011;9124;48.144;17.098;2022-12-29T01:46:21;9.35;;;6.95;;
17997;SDS011;9124;48.144;17.098;2022-12-29T01:50:04;8.27;;;6.38;;
17997;SDS011;9124;48.144;17.098;2022-12-29T01:53:47;9.20;;;6.93;;
17997;SDS011;9124;48.144;17.098;2022-12-29T01:57:29;11.05;;;7.25;;
17997;SDS011;9124;48.144;17.098;2022-12-29T02:01:10;10.07;;;6.97;;
17997;SDS011;9124;48.144;17.098;2022-12-29T02:04:47;9.32;;;7.40;;
17997;SDS011;9124;48.144;17.098;2022-12-29T02:08:29;12.82;;;8.70;;
17997;SDS011;9124;48.144;17.098;2022-12-29T02:12:07;14.13;;;7.68;;
17997;SDS011;9124;48.144;17.098;2022-12-29T02:19:57;9.73;;;7.18;;
17997;SDS011;9124;48.144;17.098;2022-12-29T02:27:50;9.20;;;7.32;;
17997;SDS011;9124;48.144;17.098;2022-12-29T02:35:35;11.75;;;7.97;;
17997;SDS011;9124;48.144;17.098;2022-12-29T02:43:39;11.00;;;7.82;;
17997;SDS011;9124;48.144;17.098;2022-12-29T02:51:33;11.35;;;7.43;;
17997;SDS011;9124;48.144;17.098;2022-12-29T02:55:16;8.85;;;7.45;;
17997;SDS011;9124;48.144;17.098;2022-12-29T02:58:52;12.80;;;7.85;;
17997;SDS011;9124;48.144;17.098;2022-12-29T03:02:31;9.20;;;6.75;;
17997;SDS011;9124;48.144;17.098;2022-12-29T03:06:19;8.23;;;6.53;;
17997;SDS011;9124;48.144;17.098;2022-12-29T03:14:15;9.98;;;6.05;;
17997;SDS011;9124;48.144;17.098;2022-12-29T03:18:23;9.35;;;7.13;;
17997;SDS011;9124;48.144;17.098;2022-12-29T03:22:08;8.90;;;6.80;;
17997;SDS011;9124;48.144;17.098;2022-12-29T03:26:14;10.85;;;8.00;;
17997;SDS011;9124;48.144;17.098;2022-12-29T03:29:57;16.63;;;8.60;;
17997;SDS011;9124;48.144;17.098;2022-12-29T03:33:39;13.13;;;8.43;;
17997;SDS011;9124;48.144;17.098;2022-12-29T03:37:21;10.70;;;7.72;;
17997;SDS011;9124;48.144;17.098;2022-12-29T03:41:03;10.88;;;8.15;;
17997;SDS011;9124;48.144;17.098;2022-12-29T03:44:44;12.45;;;8.07;;
17997;SDS011;9124;48.144;17.098;2022-12-29T03:48:23;9.93;;;7.50;;
17997;SDS011;9124;48.144;17.098;2022-12-29T03:52:02;13.02;;;8.48;;
17997;SDS011;9124;48.144;17.098;2022-12-29T03:55:40;11.43;;;7.45;;
17997;SDS011;9124;48.144;17.098;2022-12-29T03:59:17;8.40;;;7.00;;
17997;SDS011;9124;48.144;17.098;2022-12-29T04:02:54;13.90;;;8.23;;
17997;SDS011;9124;48.144;17.098;2022-12-29T04:06:33;10.10;;;7.57;;
17997;SDS011;9124;48.144;17.098;2022-12-29T04:10:13;8.50;;;7.55;;
17997;SDS011;9124;48.144;17.098;2022-12-29T04:13:50;12.23;;;8.00;;
17997;SDS011;9124;48.144;17.098;2022-12-29T04:17:31;11.35;;;7.45;;
17997;SDS011;9124;48.144;17.098;2022-12-29T04:21:07;16.83;;;7.88;;
17997;SDS011;9124;48.144;17.098;2022-12-29T04:24:47;13.15;;;7.80;;
17997;SDS011;9124;48.144;17.098;2022-12-29T04:28:24;11.05;;;7.97;;
17997;SDS011;9124;48.144;17.098;2022-12-29T04:32:15;12.13;;;8.13;;
17997;SDS011;9124;48.144;17.098;2022-12-29T04:35:58;13.88;;;8.10;;
17997;SDS011;9124;48.144;17.098;2022-12-29T04:39:35;9.93;;;8.38;;
17997;SDS011;9124;48.144;17.098;2022-12-29T04:43:14;10.10;;;8.45;;
17997;SDS011;9124;48.144;17.098;2022-12-29T04:47:27;11.88;;;8.23;;
17997;SDS011;9124;48.144;17.098;2022-12-29T04:51:21;11.95;;;8.68;;
17997;SDS011;9124;48.144;17.098;2022-12-29T04:54:59;9.93;;;8.63;;
17997;SDS011;9124;48.144;17.098;2022-12-29T04:58:36;9.95;;;7.68;;
17997;SDS011;9124;48.144;17.098;2022-12-29T05:02:14;13.07;;;9.10;;
17997;SDS011;9124;48.144;17.098;2022-12-29T05:05:56;10.55;;;8.15;;
17997;SDS011;9124;48.144;17.098;2022-12-29T05:09:33;13.35;;;8.88;;
17997;SDS011;9124;48.144;17.098;2022-12-29T05:13:10;11.68;;;9.10;;
17997;SDS011;9124;48.144;17.098;2022-12-29T05:16:49;17.45;;;9.75;;
17997;SDS011;9124;48.144;17.098;2022-12-29T05:20:29;15.02;;;9.32;;
17997;SDS011;9124;48.144;17.098;2022-12-29T05:24:09;12.85;;;9.38;;
17997;SDS011;9124;48.144;17.098;2022-12-29T05:27:46;15.13;;;9.45;;
17997;SDS011;9124;48.144;17.098;2022-12-29T05:31:45;13.00;;;8.27;;
17997;SDS011;9124;48.144;17.098;2022-12-29T05:35:22;11.77;;;9.50;;
17997;SDS011;9124;48.144;17.098;2022-12-29T05:38:59;9.65;;;8.48;;
17997;SDS011;9124;48.144;17.098;2022-12-29T05:42:35;15.15;;;9.13;;
17997;SDS011;9124;48.144;17.098;2022-12-29T05:46:34;14.35;;;9.63;;
17997;SDS011;9124;48.144;17.098;2022-12-29T05:50:37;14.52;;;9.32;;
17997;SDS011;9124;48.144;17.098;2022-12-29T05:54:23;10.20;;;9.20;;
17997;SDS011;9124;48.144;17.098;2022-12-29T05:58:00;14.50;;;9.45;;
17997;SDS011;9124;48.144;17.098;2022-12-29T06:01:37;13.70;;;9.55;;
17997;SDS011;9124;48.144;17.098;2022-12-29T06:05:13;13.82;;;9.55;;
17997;SDS011;9124;48.144;17.098;2022-12-29T06:08:49;11.90;;;9.52;;
17997;SDS011;9124;48.144;17.098;2022-12-29T06:12:28;10.15;;;8.27;;
17997;SDS011;9124;48.144;17.098;2022-12-29T06:16:04;16.55;;;9.32;;
17997;SDS011;9124;48.144;17.098;2022-12-29T06:19:41;12.52;;;9.45;;
17997;SDS011;9124;48.144;17.098;2022-12-29T06:23:19;15.13;;;9.98;;
17997;SDS011;9124;48.144;17.098;2022-12-29T06:26:56;15.70;;;9.48;;
17997;SDS011;9124;48.144;17.098;2022-12-29T06:30:32;13.48;;;10.13;;
17997;SDS011;9124;48.144;17.098;2022-12-29T06:34:10;10.75;;;9.05;;
17997;SDS011;9124;48.144;17.098;2022-12-29T06:37:47;15.88;;;9.48;;
17997;SDS011;9124;48.144;17.098;2022-12-29T06:41:24;14.23;;;7.78;;
17997;SDS011;9124;48.144;17.098;2022-12-29T06:45:29;13.23;;;9.48;;
17997;SDS011;9124;48.144;17.098;2022-12-29T06:49:06;11.55;;;8.60;;
17997;SDS011;9124;48.144;17.098;2022-12-29T06:52:42;13.27;;;9.43;;
17997;SDS011;9124;48.144;17.098;2022-12-29T06:56:18;16.83;;;9.75;;
17997;SDS011;9124;48.144;17.098;2022-12-29T06:59:55;13.68;;;9.13;;
17997;SDS011;9124;48.144;17.098;2022-12-29T07:03:31;13.63;;;9.30;;
17997;SDS011;9124;48.144;17.098;2022-12-29T07:07:07;17.40;;;10.25;;
17997;SDS011;9124;48.144;17.098;2022-12-29T07:10:43;15.35;;;9.20;;
17997;SDS011;9124;48.144;17.098;2022-12-29T07:14:21;12.20;;;9.40;;
17997;SDS011;9124;48.144;17.098;2022-12-29T07:17:57;13.25;;;9.27;;
17997;SDS011;9124;48.144;17.098;2022-12-29T07:21:33;12.90;;;8.98;;
17997;SDS011;9124;48.144;17.098;2022-12-29T07:25:09;17.65;;;8.82;;
17997;SDS011;9124;48.144;17.098;2022-12-29T07:28:46;12.95;;;8.45;;
17997;SDS011;9124;48.144;17.098;2022-12-29T07:32:22;16.40;;;9.35;;
17997;SDS011;9124;48.144;17.098;2022-12-29T07:35:58;14.45;;;9.50;;
17997;SDS011;9124;48.144;17.098;2022-12-29T07:39:35;11.40;;;8.25;;
17997;SDS011;9124;48.144;17.098;2022-12-29T07:43:11;12.52;;;8.75;;
17997;SDS011;9124;48.144;17.098;2022-12-29T07:46:56;14.05;;;9.68;;
17997;SDS011;9124;48.144;17.098;2022-12-29T07:50:33;15.60;;;9.98;;
17997;SDS011;9124;48.144;17.098;2022-12-29T07:54:10;18.83;;;9.18;;
17997;SDS011;9124;48.144;17.098;2022-12-29T07:57:48;13.98;;;8.98;;
17997;SDS011;9124;48.144;17.098;2022-12-29T08:01:24;13.48;;;8.77;;
17997;SDS011;9124;48.144;17.098;2022-12-29T08:05:00;16.55;;;8.35;;
17997;SDS011;9124;48.144;17.098;2022-12-29T08:08:37;10.73;;;8.77;;
17997;SDS011;9124;48.144;17.098;2022-12-29T08:12:13;18.02;;;9.25;;
17997;SDS011;9124;48.144;17.098;2022-12-29T08:15:50;15.00;;;9.38;;
17997;SDS011;9124;48.144;17.098;2022-12-29T08:19:26;14.13;;;8.50;;
17997;SDS011;9124;48.144;17.098;2022-12-29T08:23:03;12.95;;;9.23;;
17997;SDS011;9124;48.144;17.098;2022-12-29T08:26:39;13.05;;;8.95;;
17997;SDS011;9124;48.144;17.098;2022-12-29T08:30:16;11.45;;;7.97;;
17997;SDS011;9124;48.144;17.098;2022-12-29T08:33:52;12.63;;;9.15;;
17997;SDS011;9124;48.144;17.098;2022-12-29T08:37:29;8.57;;;7.57;;
17997;SDS011;9124;48.144;17.098;2022-12-29T08:41:05;15.32;;;9.60;;
17997;SDS011;9124;48.144;17.098;2022-12-29T08:44:42;12.95;;;8.43;;
17997;SDS011;9124;48.144;17.098;2022-12-29T08:48:18;12.65;;;8.90;;
17997;SDS011;9124;48.144;17.098;2022-12-29T08:51:57;11.82;;;7.60;;
17997;SDS011;9124;48.144;17.098;2022-12-29T08:55:34;13.25;;;8.10;;
17997;SDS011;9124;48.144;17.098;2022-12-29T08:59:10;11.13;;;8.57;;
17997;SDS011;9124;48.144;17.098;2022-12-29T09:02:47;10.40;;;7.68;;
17997;SDS011;9124;48.144;17.098;2022-12-29T09:06:23;12.50;;;8.75;;
17997;SDS011;9124;48.144;17.098;2022-12-29T09:09:59;8.93;;;7.57;;
17997;SDS011;9124;48.144;17.098;2022-12-29T09:13:36;10.75;;;8.75;;
17997;SDS011;9124;48.144;17.098;2022-12-29T09:17:12;9.82;;;7.70;;
17997;SDS011;9124;48.144;17.098;2022-12-29T09:21:09;11.77;;;7.45;;
17997;SDS011;9124;48.144;17.098;2022-12-29T09:24:46;10.85;;;8.20;;
17997;SDS011;9124;48.144;17.098;2022-12-29T09:28:23;10.68;;;8.25;;
17997;SDS011;9124;48.144;17.098;2022-12-29T09:31:59;10.75;;;8.55;;
17997;SDS011;9124;48.144;17.098;2022-12-29T09:35:36;16.83;;;9.65;;
17997;SDS011;9124;48.144;17.098;2022-12-29T09:39:13;12.88;;;8.88;;
17997;SDS011;9124;48.144;17.098;2022-12-29T09:46:49;13.25;;;8.45;;
17997;SDS011;9124;48.144;17.098;2022-12-29T09:50:30;10.02;;;8.82;;
17997;SDS011;9124;48.144;17.098;2022-12-29T09:54:31;12.93;;;8.95;;
17997;SDS011;9124;48.144;17.098;2022-12-29T09:58:40;12.60;;;9.05;;
17997;SDS011;9124;48.144;17.098;2022-12-29T10:02:29;10.55;;;8.40;;
17997;SDS011;9124;48.144;17.098;2022-12-29T10:26:17;13.07;;;8.25;;
17997;SDS011;9124;48.144;17.098;2022-12-29T10:29:56;15.02;;;9.30;;
17997;SDS011;9124;48.144;17.098;2022-12-29T10:33:36;13.60;;;8.95;;
17997;SDS011;9124;48.144;17.098;2022-12-29T10:44:44;9.32;;;8.38;;
17997;SDS011;9124;48.144;17.098;2022-12-29T10:48:42;13.43;;;9.43;;
17997;SDS011;9124;48.144;17.098;2022-12-29T10:52:21;11.90;;;9.27;;
17997;SDS011;9124;48.144;17.098;2022-12-29T10:55:59;10.98;;;9.57;;
17997;SDS011;9124;48.144;17.098;2022-12-29T10:59:41;13.88;;;9.02;;
17997;SDS011;9124;48.144;17.098;2022-12-29T11:07:00;14.25;;;9.55;;
17997;SDS011;9124;48.144;17.098;2022-12-29T11:10:38;13.35;;;9.15;;
17997;SDS011;9124;48.144;17.098;2022-12-29T11:14:20;12.20;;;9.07;;
17997;SDS011;9124;48.144;17.098;2022-12-29T11:18:02;12.48;;;9.45;;
17997;SDS011;9124;48.144;17.098;2022-12-29T11:21:39;17.25;;;10.20;;
17997;SDS011;9124;48.144;17.098;2022-12-29T11:25:17;11.23;;;8.82;;
17997;SDS011;9124;48.144;17.098;2022-12-29T11:33:12;12.60;;;9.13;;
17997;SDS011;9124;48.144;17.098;2022-12-29T11:36:48;12.63;;;10.38;;
17997;SDS011;9124;48.144;17.098;2022-12-29T11:40:27;11.90;;;9.63;;
17997;SDS011;9124;48.144;17.098;2022-12-29T11:44:04;11.20;;;8.85;;
17997;SDS011;9124;48.144;17.098;2022-12-29T11:47:45;16.17;;;9.68;;
17997;SDS011;9124;48.144;17.098;2022-12-29T11:51:26;15.98;;;10.02;;
17997;SDS011;9124;48.144;17.098;2022-12-29T11:59:24;17.05;;;8.73;;
17997;SDS011;9124;48.144;17.098;2022-12-29T12:03:16;14.10;;;9.45;;
17997;SDS011;9124;48.144;17.098;2022-12-29T12:07:02;18.65;;;8.65;;
17997;SDS011;9124;48.144;17.098;2022-12-29T12:10:44;12.35;;;8.70;;
17997;SDS011;9124;48.144;17.098;2022-12-29T12:18:48;11.63;;;8.90;;
17997;SDS011;9124;48.144;17.098;2022-12-29T12:22:50;15.32;;;9.90;;
17997;SDS011;9124;48.144;17.098;2022-12-29T12:26:40;15.20;;;10.38;;
17997;SDS011;9124;48.144;17.098;2022-12-29T12:30:26;18.73;;;9.75;;
17997;SDS011;9124;48.144;17.098;2022-12-29T12:34:20;16.48;;;11.32;;
17997;SDS011;9124;48.144;17.098;2022-12-29T12:54:11;15.23;;;11.30;;
17997;SDS011;9124;48.144;17.098;2022-12-29T13:01:43;14.52;;;11.20;;
17997;SDS011;9124;48.144;17.098;2022-12-29T13:09:54;21.75;;;12.75;;
17997;SDS011;9124;48.144;17.098;2022-12-29T13:21:46;16.60;;;10.65;;
17997;SDS011;9124;48.144;17.098;2022-12-29T13:26:16;13.68;;;10.25;;
17997;SDS011;9124;48.144;17.098;2022-12-29T13:33:51;16.42;;;11.93;;
17997;SDS011;9124;48.144;17.098;2022-12-29T13:38:03;18.17;;;10.30;;
17997;SDS011;9124;48.144;17.098;2022-12-29T13:41:56;16.13;;;11.13;;
17997;SDS011;9124;48.144;17.098;2022-12-29T13:45:32;17.80;;;11.60;;
17997;SDS011;9124;48.144;17.098;2022-12-29T13:49:18;18.30;;;11.68;;
17997;SDS011;9124;48.144;17.098;2022-12-29T13:53:15;22.23;;;11.68;;
17997;SDS011;9124;48.144;17.098;2022-12-29T13:57:08;16.52;;;11.73;;
17997;SDS011;9124;48.144;17.098;2022-12-29T14:00:49;21.80;;;13.82;;
17997;SDS011;9124;48.144;17.098;2022-12-29T14:04:28;25.35;;;13.55;;
17997;SDS011;9124;48.144;17.098;2022-12-29T14:08:14;18.05;;;12.85;;
17997;SDS011;9124;48.144;17.098;2022-12-29T14:11:53;20.70;;;12.52;;
17997;SDS011;9124;48.144;17.098;2022-12-29T14:15:29;24.90;;;15.30;;
17997;SDS011;9124;48.144;17.098;2022-12-29T14:19:10;18.17;;;12.68;;
17997;SDS011;9124;48.144;17.098;2022-12-29T14:23:25;20.40;;;11.75;;
17997;SDS011;9124;48.144;17.098;2022-12-29T14:30:52;19.88;;;12.98;;
17997;SDS011;9124;48.144;17.098;2022-12-29T14:34:30;20.92;;;13.30;;
17997;SDS011;9124;48.144;17.098;2022-12-29T14:38:17;22.17;;;12.70;;
17997;SDS011;9124;48.144;17.098;2022-12-29T14:42:19;31.73;;;15.90;;
17997;SDS011;9124;48.144;17.098;2022-12-29T14:45:59;27.70;;;15.80;;
17997;SDS011;9124;48.144;17.098;2022-12-29T14:49:40;24.77;;;15.07;;
17997;SDS011;9124;48.144;17.098;2022-12-29T15:01:42;32.28;;;17.88;;
17997;SDS011;9124;48.144;17.098;2022-12-29T15:05:30;27.50;;;16.90;;
17997;SDS011;9124;48.144;17.098;2022-12-29T15:13:39;24.25;;;17.30;;
17997;SDS011;9124;48.144;17.098;2022-12-29T15:17:25;27.17;;;15.55;;
17997;SDS011;9124;48.144;17.098;2022-12-29T15:21:06;30.73;;;16.80;;
17997;SDS011;9124;48.144;17.098;2022-12-29T15:24:43;30.13;;;17.33;;
17997;SDS011;9124;48.144;17.098;2022-12-29T15:28:20;34.72;;;17.30;;
17997;SDS011;9124;48.144;17.098;2022-12-29T15:31:58;27.85;;;17.80;;
17997;SDS011;9124;48.144;17.098;2022-12-29T15:35:36;30.25;;;18.45;;
17997;SDS011;9124;48.144;17.098;2022-12-29T15:39:20;48.95;;;19.00;;
17997;SDS011;9124;48.144;17.098;2022-12-29T15:46:51;30.60;;;17.75;;
17997;SDS011;9124;48.144;17.098;2022-12-29T15:54:04;32.72;;;16.73;;
17997;SDS011;9124;48.144;17.098;2022-12-29T15:57:42;23.88;;;16.38;;
17997;SDS011;9124;48.144;17.098;2022-12-29T16:01:35;28.23;;;16.30;;
17997;SDS011;9124;48.144;17.098;2022-12-29T16:05:16;29.38;;;15.93;;
17997;SDS011;9124;48.144;17.098;2022-12-29T16:09:16;24.92;;;15.25;;
17997;SDS011;9124;48.144;17.098;2022-12-29T16:12:56;24.88;;;15.45;;
17997;SDS011;9124;48.144;17.098;2022-12-29T16:16:39;26.88;;;16.85;;
17997;SDS011;9124;48.144;17.098;2022-12-29T16:20:25;21.80;;;14.45;;
17997;SDS011;9124;48.144;17.098;2022-12-29T16:24:20;29.23;;;15.15;;
17997;SDS011;9124;48.144;17.098;2022-12-29T16:28:00;23.23;;;15.18;;
17997;SDS011;9124;48.144;17.098;2022-12-29T16:39:25;22.92;;;14.68;;
17997;SDS011;9124;48.144;17.098;2022-12-29T16:43:18;25.50;;;16.20;;
17997;SDS011;9124;48.144;17.098;2022-12-29T16:50:47;26.77;;;15.20;;
17997;SDS011;9124;48.144;17.098;2022-12-29T16:54:28;30.55;;;15.88;;
17997;SDS011;9124;48.144;17.098;2022-12-29T16:58:11;31.23;;;17.23;;
17997;SDS011;9124;48.144;17.098;2022-12-29T17:01:54;28.58;;;16.25;;
17997;SDS011;9124;48.144;17.098;2022-12-29T17:05:31;25.33;;;15.63;;
17997;SDS011;9124;48.144;17.098;2022-12-29T17:09:18;28.45;;;17.70;;
17997;SDS011;9124;48.144;17.098;2022-12-29T17:12:59;27.33;;;16.50;;
17997;SDS011;9124;48.144;17.098;2022-12-29T17:16:35;28.77;;;16.48;;
17997;SDS011;9124;48.144;17.098;2022-12-29T17:20:15;30.95;;;16.70;;
17997;SDS011;9124;48.144;17.098;2022-12-29T17:23:52;29.60;;;16.92;;
17997;SDS011;9124;48.144;17.098;2022-12-29T17:27:30;28.25;;;16.02;;
17997;SDS011;9124;48.144;17.098;2022-12-29T17:31:16;31.08;;;18.17;;
17997;SDS011;9124;48.144;17.098;2022-12-29T17:34:52;30.92;;;16.85;;
17997;SDS011;9124;48.144;17.098;2022-12-29T17:38:30;32.78;;;18.48;;
17997;SDS011;9124;48.144;17.098;2022-12-29T17:42:10;35.33;;;17.38;;
17997;SDS011;9124;48.144;17.098;2022-12-29T17:45:48;33.78;;;18.83;;
17997;SDS011;9124;48.144;17.098;2022-12-29T17:49:28;28.85;;;16.63;;
17997;SDS011;9124;48.144;17.098;2022-12-29T17:53:05;29.85;;;17.42;;
17997;SDS011;9124;48.144;17.098;2022-12-29T17:56:46;34.33;;;19.52;;
17997;SDS011;9124;48.144;17.098;2022-12-29T18:00:24;32.85;;;18.02;;
17997;SDS011;9124;48.144;17.098;2022-12-29T18:04:11;34.00;;;19.20;;
17997;SDS011;9124;48.144;17.098;2022-12-29T18:07:53;27.45;;;16.67;;
17997;SDS011;9124;48.144;17.098;2022-12-29T18:11:30;31.73;;;18.52;;
17997;SDS011;9124;48.144;17.098;2022-12-29T18:15:15;36.15;;;18.70;;
17997;SDS011;9124;48.144;17.098;2022-12-29T18:18:54;30.77;;;16.67;;
17997;SDS011;9124;48.144;17.098;2022-12-29T18:22:31;30.23;;;17.77;;
17997;SDS011;9124;48.144;17.098;2022-12-29T18:30:13;36.67;;;19.13;;
17997;SDS011;9124;48.144;17.098;2022-12-29T18:33:49;32.53;;;18.75;;
17997;SDS011;9124;48.144;17.098;2022-12-29T18:37:27;34.55;;;19.25;;
17997;SDS011;9124;48.144;17.098;2022-12-29T18:41:04;34.10;;;19.00;;
17997;SDS011;9124;48.144;17.098;2022-12-29T18:44:41;31.25;;;19.02;;
17997;SDS011;9124;48.144;17.098;2022-12-29T18:48:18;31.48;;;18.58;;
17997;SDS011;9124;48.144;17.098;2022-12-29T18:51:55;32.67;;;19.02;;
17997;SDS011;9124;48.144;17.098;2022-12-29T18:55:31;33.72;;;20.02;;
17997;SDS011;9124;48.144;17.098;2022-12-29T18:59:08;36.20;;;19.63;;
17997;SDS011;9124;48.144;17.098;2022-12-29T19:02:45;45.03;;;20.80;;
17997;SDS011;9124;48.144;17.098;2022-12-29T19:06:22;32.78;;;19.85;;
17997;SDS011;9124;48.144;17.098;2022-12-29T19:09:58;31.88;;;19.42;;
17997;SDS011;9124;48.144;17.098;2022-12-29T19:13:34;40.65;;;20.95;;
17997;SDS011;9124;48.144;17.098;2022-12-29T19:17:11;42.25;;;20.52;;
17997;SDS011;9124;48.144;17.098;2022-12-29T19:20:49;38.10;;;21.20;;
17997;SDS011;9124;48.144;17.098;2022-12-29T19:24:26;41.75;;;21.75;;
17997;SDS011;9124;48.144;17.098;2022-12-29T19:28:03;37.67;;;22.05;;
17997;SDS011;9124;48.144;17.098;2022-12-29T19:31:41;35.75;;;20.27;;
17997;SDS011;9124;48.144;17.098;2022-12-29T19:35:18;36.92;;;21.00;;
17997;SDS011;9124;48.144;17.098;2022-12-29T19:38:56;33.17;;;20.85;;
17997;SDS011;9124;48.144;17.098;2022-12-29T19:42:32;41.72;;;22.75;;
17997;SDS011;9124;48.144;17.098;2022-12-29T19:46:13;38.33;;;21.25;;
17997;SDS011;9124;48.144;17.098;2022-12-29T19:49:51;42.95;;;22.80;;
17997;SDS011;9124;48.144;17.098;2022-12-29T19:53:27;33.63;;;20.20;;
17997;SDS011;9124;48.144;17.098;2022-12-29T19:57:03;45.88;;;23.77;;
17997;SDS011;9124;48.144;17.098;2022-12-29T20:00:41;37.33;;;21.48;;
17997;SDS011;9124;48.144;17.098;2022-12-29T20:04:18;43.72;;;22.35;;
17997;SDS011;9124;48.144;17.098;2022-12-29T20:07:54;43.03;;;24.20;;
17997;SDS011;9124;48.144;17.098;2022-12-29T20:11:30;37.50;;;21.38;;
17997;SDS011;9124;48.144;17.098;2022-12-29T20:15:07;38.15;;;21.63;;
17997;SDS011;9124;48.144;17.098;2022-12-29T20:18:44;43.60;;;21.38;;
17997;SDS011;9124;48.144;17.098;2022-12-29T20:22:21;37.88;;;21.25;;
17997;SDS011;9124;48.144;17.098;2022-12-29T20:25:58;35.17;;;21.23;;
17997;SDS011;9124;48.144;17.098;2022-12-29T20:29:36;39.88;;;22.65;;
17997;SDS011;9124;48.144;17.098;2022-12-29T20:33:14;35.95;;;22.77;;
17997;SDS011;9124;48.144;17.098;2022-12-29T20:36:50;36.72;;;21.50;;
17997;SDS011;9124;48.144;17.098;2022-12-29T20:40:27;34.38;;;20.02;;
17997;SDS011;9124;48.144;17.098;2022-12-29T20:44:03;33.95;;;21.05;;
17997;SDS011;9124;48.144;17.098;2022-12-29T20:47:40;31.60;;;20.70;;
17997;SDS011;9124;48.144;17.098;2022-12-29T20:51:16;37.67;;;20.38;;
17997;SDS011;9124;48.144;17.098;2022-12-29T20:54:53;37.53;;;19.45;;
17997;SDS011;9124;48.144;17.098;2022-12-29T20:58:30;33.90;;;18.55;;
17997;SDS011;9124;48.144;17.098;2022-12-29T21:02:09;32.45;;;18.88;;
17997;SDS011;9124;48.144;17.098;2022-12-29T21:05:53;37.63;;;18.73;;
17997;SDS011;9124;48.144;17.098;2022-12-29T21:09:30;35.25;;;20.48;;
17997;SDS011;9124;48.144;17.098;2022-12-29T21:13:06;33.92;;;20.48;;
17997;SDS011;9124;48.144;17.098;2022-12-29T21:16:43;30.90;;;18.55;;
17997;SDS011;9124;48.144;17.098;2022-12-29T21:20:19;36.80;;;20.63;;
17997;SDS011;9124;48.144;17.098;2022-12-29T21:23:56;38.05;;;20.85;;
17997;SDS011;9124;48.144;17.098;2022-12-29T21:27:39;39.65;;;22.63;;
17997;SDS011;9124;48.144;17.098;2022-12-29T21:31:27;38.30;;;20.67;;
17997;SDS011;9124;48.144;17.098;2022-12-29T21:35:03;46.97;;;21.98;;
17997;SDS011;9124;48.144;17.098;2022-12-29T21:38:40;43.40;;;23.40;;
17997;SDS011;9124;48.144;17.098;2022-12-29T21:42:16;41.58;;;21.83;;
17997;SDS011;9124;48.144;17.098;2022-12-29T21:45:53;43.53;;;22.20;;
17997;SDS011;9124;48.144;17.098;2022-12-29T21:49:29;38.90;;;21.38;;
17997;SDS011;9124;48.144;17.098;2022-12-29T21:53:05;40.25;;;21.33;;
17997;SDS011;9124;48.144;17.098;2022-12-29T21:56:42;41.45;;;22.20;;
17997;SDS011;9124;48.144;17.098;2022-12-29T22:00:22;41.83;;;22.25;;
17997;SDS011;9124;48.144;17.098;2022-12-29T22:04:17;37.92;;;20.85;;
17997;SDS011;9124;48.144;17.098;2022-12-29T22:08:15;30.85;;;20.00;;
17997;SDS011;9124;48.144;17.098;2022-12-29T22:12:10;34.08;;;20.33;;
17997;SDS011;9124;48.144;17.098;2022-12-29T22:16:06;37.58;;;20.10;;
17997;SDS011;9124;48.144;17.098;2022-12-29T22:19:44;39.78;;;19.30;;
17997;SDS011;9124;48.144;17.098;2022-12-29T22:23:21;37.90;;;20.05;;
17997;SDS011;9124;48.144;17.098;2022-12-29T22:26:57;34.22;;;19.70;;
17997;SDS011;9124;48.144;17.098;2022-12-29T22:30:34;36.55;;;19.52;;
17997;SDS011;9124;48.144;17.098;2022-12-29T22:34:10;36.13;;;20.83;;
17997;SDS011;9124;48.144;17.098;2022-12-29T22:37:49;34.40;;;19.10;;
17997;SDS011;9124;48.144;17.098;2022-12-29T22:41:25;36.20;;;20.38;;
17997;SDS011;9124;48.144;17.098;2022-12-29T22:45:02;42.55;;;20.10;;
17997;SDS011;9124;48.144;17.098;2022-12-29T22:48:38;37.60;;;20.88;;
17997;SDS011;9124;48.144;17.098;2022-12-29T22:52:15;32.53;;;19.05;;
17997;SDS011;9124;48.144;17.098;2022-12-29T22:56:01;38.75;;;19.92;;
17997;SDS011;9124;48.144;17.098;2022-12-29T22:59:42;34.38;;;20.90;;
17997;SDS011;9124;48.144;17.098;2022-12-29T23:03:18;34.42;;;19.70;;
17997;SDS011;9124;48.144;17.098;2022-12-29T23:06:55;37.33;;;20.40;;
17997;SDS011;9124;48.144;17.098;2022-12-29T23:10:31;37.20;;;21.55;;
17997;SDS011;9124;48.144;17.098;2022-12-29T23:14:08;34.83;;;20.35;;
17997;SDS011;9124;48.144;17.098;2022-12-29T23:17:44;35.25;;;18.90;;
17997;SDS011;9124;48.144;17.098;2022-12-29T23:21:21;34.20;;;20.75;;
17997;SDS011;9124;48.144;17.098;2022-12-29T23:24:57;33.60;;;19.08;;
17997;SDS011;9124;48.144;17.098;2022-12-29T23:28:34;34.17;;;20.30;;
17997;SDS011;9124;48.144;17.098;2022-12-29T23:32:10;42.20;;;21.63;;
17997;SDS011;9124;48.144;17.098;2022-12-29T23:35:47;40.22;;;21.23;;
17997;SDS011;9124;48.144;17.098;2022-12-29T23:39:23;40.55;;;23.48;;
17997;SDS011;9124;48.144;17.098;2022-12-29T23:42:59;38.08;;;21.00;;
17997;SDS011;9124;48.144;17.098;2022-12-29T23:46:36;40.70;;;22.02;;
17997;SDS011;9124;48.144;17.098;2022-12-29T23:50:13;39.40;;;23.45;;
17997;SDS011;9124;48.144;17.098;2022-12-29T23:53:49;39.45;;;23.48;;
17997;SDS011;9124;48.144;17.098;2022-12-29T23:57:25;34.25;;;19.73;;
